Time;durP1;ratioP1;P1;durP2;ratioP2;P2;SDS_P1;SDS_P2;PMS_P1;PMS_P2;Temp;Humidity;BMP_temperature;BMP_pressure;BME280_temperature;BME280_humidity;BME280_pressure;Samples;Min_cycle;Max_cycle;Signal;HPM_P1;HPM_P2
2022/03/08 00:01:04;;;;;;;35.50;19.13;;;2.60;99.90;;;;;;5053308;28;20501;-71
2022/03/08 00:03:29;;;;;;;32.97;18.33;;;2.60;99.90;;;;;;5053241;28;20032;-70
2022/03/08 00:05:56;;;;;;;33.70;20.23;;;2.60;99.90;;;;;;5053032;28;20506;-70
2022/03/08 00:08:22;;;;;;;37.22;20.05;;;2.60;99.90;;;;;;5053691;28;20024;-70
2022/03/08 00:10:47;;;;;;;33.08;17.85;;;2.60;99.90;;;;;;5053432;28;20029;-70
2022/03/08 00:13:13;;;;;;;36.55;18.65;;;2.70;99.90;;;;;;5053131;28;20032;-70
2022/03/08 00:15:39;;;;;;;35.70;18.85;;;2.70;99.90;;;;;;5053620;28;20064;-70
2022/03/08 00:18:05;;;;;;;35.67;20.25;;;2.70;99.90;;;;;;5053048;28;20505;-70
2022/03/08 00:20:31;;;;;;;31.05;19.25;;;2.80;99.90;;;;;;5057067;28;20033;-70
2022/03/08 00:22:57;;;;;;;34.17;19.13;;;2.80;99.90;;;;;;5059992;28;20385;-70
2022/03/08 00:25:23;;;;;;;36.63;18.73;;;2.80;99.90;;;;;;5060227;28;20036;-71
2022/03/08 00:27:49;;;;;;;33.28;19.33;;;2.70;99.90;;;;;;5059907;28;20033;-70
2022/03/08 00:30:18;;;;;;;36.80;19.60;;;2.70;99.90;;;;;;5059640;28;20039;-70
2022/03/08 00:32:44;;;;;;;35.47;19.92;;;2.70;99.90;;;;;;5059573;28;20025;-70
2022/03/08 00:35:10;;;;;;;32.95;19.13;;;2.70;99.90;;;;;;5059538;28;20027;-71
2022/03/08 00:37:37;;;;;;;35.10;18.15;;;2.70;99.90;;;;;;5059557;28;20125;-70
2022/03/08 00:40:05;;;;;;;32.75;18.40;;;2.60;99.90;;;;;;5059650;28;20482;-70
2022/03/08 00:42:30;;;;;;;34.72;19.23;;;2.50;99.90;;;;;;5059497;28;20031;-71
2022/03/08 00:44:56;;;;;;;35.25;18.48;;;2.50;99.90;;;;;;5059564;28;20021;-70
2022/03/08 00:47:22;;;;;;;34.50;19.48;;;2.50;99.90;;;;;;5059506;28;20520;-71
2022/03/08 00:49:47;;;;;;;30.67;17.58;;;2.50;99.90;;;;;;5059446;28;20473;-70
2022/03/08 00:52:13;;;;;;;33.70;18.70;;;2.50;99.90;;;;;;5059470;28;20021;-71
2022/03/08 00:54:39;;;;;;;34.22;18.58;;;2.40;99.90;;;;;;5059375;28;20025;-70
2022/03/08 00:57:05;;;;;;;31.25;19.00;;;2.60;99.90;;;;;;5059360;28;20415;-71
2022/03/08 00:59:31;;;;;;;33.88;19.70;;;2.50;99.90;;;;;;5059445;28;20401;-71
2022/03/08 01:01:57;;;;;;;34.33;19.38;;;2.50;99.90;;;;;;5059328;28;20013;-71
2022/03/08 01:04:23;;;;;;;33.92;19.95;;;2.50;99.90;;;;;;5059420;28;20032;-71
2022/03/08 01:06:49;;;;;;;33.55;18.52;;;;;;;;;;5059640;28;20108;-70
2022/03/08 01:09:14;;;;;;;32.20;17.63;;;2.50;99.90;;;;;;5059368;28;20036;-71
2022/03/08 01:11:42;;;;;;;31.00;17.20;;;2.70;99.90;;;;;;5059332;28;20039;-72
2022/03/08 01:14:09;;;;;;;30.67;18.45;;;2.50;99.90;;;;;;5059295;28;20439;-71
2022/03/08 01:16:35;;;;;;;36.50;19.05;;;2.50;99.90;;;;;;5059184;28;20025;-71
2022/03/08 01:19:04;;;;;;;34.22;19.90;;;2.50;99.90;;;;;;5059216;28;20037;-71
2022/03/08 01:21:30;;;;;;;32.90;17.92;;;2.40;99.90;;;;;;5059218;28;20465;-73
2022/03/08 01:23:55;;;;;;;36.58;19.77;;;2.50;99.90;;;;;;5059192;28;20032;-73
2022/03/08 01:26:21;;;;;;;33.22;18.80;;;2.50;99.90;;;;;;5041248;28;20063;-70
2022/03/08 01:28:47;;;;;;;36.90;20.10;;;2.60;99.90;;;;;;5059173;28;20541;-73
2022/03/08 01:31:13;;;;;;;33.17;18.23;;;2.60;99.90;;;;;;5057293;28;20412;-73
2022/03/08 01:33:39;;;;;;;32.17;18.20;;;2.70;99.90;;;;;;5055909;28;20162;-73
2022/03/08 01:36:05;;;;;;;34.80;19.45;;;2.80;99.90;;;;;;5055846;28;20013;-74
2022/03/08 01:38:31;;;;;;;31.55;17.83;;;2.80;99.90;;;;;;5055902;28;20025;-73
2022/03/08 01:40:57;;;;;;;33.63;19.05;;;2.80;99.90;;;;;;5055844;28;20040;-73
2022/03/08 01:43:23;;;;;;;31.00;18.55;;;2.70;99.90;;;;;;5056044;28;20032;-73
2022/03/08 01:45:48;;;;;;;33.20;18.02;;;2.60;99.90;;;;;;5055734;28;20028;-73
2022/03/08 01:48:14;;;;;;;36.28;18.23;;;2.60;99.90;;;;;;5055684;28;20040;-73
2022/03/08 01:50:40;;;;;;;32.22;18.55;;;2.50;99.90;;;;;;5055656;28;20021;-73
2022/03/08 01:53:06;;;;;;;33.65;18.02;;;2.50;99.90;;;;;;5055628;28;20031;-73
2022/03/08 01:55:33;;;;;;;31.55;17.67;;;2.40;99.90;;;;;;5055684;28;20021;-73
2022/03/08 01:57:59;;;;;;;32.20;17.98;;;2.40;99.90;;;;;;5055781;28;20033;-73
2022/03/08 02:00:29;;;;;;;34.33;18.45;;;2.40;99.90;;;;;;5055513;28;20104;-73
2022/03/08 02:02:55;;;;;;;33.55;18.88;;;2.50;99.90;;;;;;5055389;28;20021;-73
2022/03/08 02:05:21;;;;;;;30.30;17.75;;;2.60;99.90;;;;;;5055094;28;20140;-72
2022/03/08 02:07:47;;;;;;;33.60;17.60;;;2.60;99.90;;;;;;5055337;28;20076;-73
2022/03/08 02:10:13;;;;;;;34.25;18.33;;;2.80;99.90;;;;;;5055295;28;20025;-73
2022/03/08 02:12:39;;;;;;;35.40;18.50;;;2.80;99.90;;;;;;5055759;28;20033;-73
2022/03/08 02:15:16;;;;;;;32.05;17.77;;;2.90;99.90;;;;;;5055417;28;20025;-70
2022/03/08 02:17:42;;;;;;;30.40;17.67;;;3.00;99.90;;;;;;5055493;28;20064;-72
2022/03/08 02:20:09;;;;;;;30.98;17.27;;;3.10;99.90;;;;;;5055128;28;20017;-72
2022/03/08 02:22:35;;;;;;;31.80;17.67;;;3.20;99.90;;;;;;5055573;28;20049;-73
2022/03/08 02:25:02;;;;;;;34.67;18.75;;;3.20;99.90;;;;;;5054990;28;20024;-72
2022/03/08 02:27:28;;;;;;;28.88;16.92;;;3.30;99.90;;;;;;5054974;28;20033;-73
2022/03/08 02:29:53;;;;;;;31.13;17.85;;;3.30;99.90;;;;;;5054887;28;20021;-73
2022/03/08 02:32:19;;;;;;;35.92;18.08;;;3.40;99.90;;;;;;5054868;28;20036;-73
2022/03/08 02:34:44;;;;;;;30.38;17.80;;;3.40;99.90;;;;;;5055106;28;20025;-72
2022/03/08 02:37:13;;;;;;;30.05;16.75;;;3.40;99.90;;;;;;5055026;28;20031;-72
2022/03/08 02:39:40;;;;;;;30.00;17.95;;;3.50;99.90;;;;;;5054964;28;20032;-72
2022/03/08 02:42:06;;;;;;;29.75;16.17;;;3.50;99.90;;;;;;5054963;28;20028;-73
2022/03/08 02:44:32;;;;;;;32.53;17.38;;;3.60;99.90;;;;;;5054773;28;20017;-73
2022/03/08 02:47:05;;;;;;;32.97;19.05;;;3.60;99.90;;;;;;5054652;28;20035;-72
2022/03/08 02:49:32;;;;;;;33.17;18.50;;;3.60;99.90;;;;;;5054521;28;20084;-72
2022/03/08 02:51:58;;;;;;;32.53;17.88;;;3.60;99.90;;;;;;5054470;28;20107;-70
2022/03/08 02:54:24;;;;;;;30.52;16.25;;;3.70;99.90;;;;;;5054655;28;20063;-72
2022/03/08 02:56:51;;;;;;;33.13;18.30;;;3.70;99.90;;;;;;5054323;28;20033;-72
2022/03/08 02:59:23;;;;;;;30.55;16.83;;;3.70;99.90;;;;;;5054625;28;20021;-72
2022/03/08 03:01:49;;;;;;;29.90;17.02;;;3.70;99.90;;;;;;5054276;28;20025;-72
2022/03/08 03:04:15;;;;;;;30.88;17.35;;;3.70;99.90;;;;;;5054032;28;20021;-72
2022/03/08 03:06:43;;;;;;;32.38;18.30;;;3.70;99.90;;;;;;5054546;28;20041;-70
2022/03/08 03:09:08;;;;;;;33.38;17.90;;;3.70;99.90;;;;;;5054153;28;20025;-70
2022/03/08 03:11:34;;;;;;;32.70;17.48;;;3.70;99.90;;;;;;5054079;28;20116;-72
2022/03/08 03:14:00;;;;;;;29.75;17.05;;;3.80;99.90;;;;;;5054089;28;20028;-73
2022/03/08 03:16:26;;;;;;;30.30;16.73;;;3.80;99.90;;;;;;5053953;28;20025;-73
2022/03/08 03:18:52;;;;;;;31.75;17.63;;;3.80;99.90;;;;;;5054004;28;20021;-70
2022/03/08 03:21:18;;;;;;;30.17;15.38;;;3.90;99.90;;;;;;5054228;28;20435;-70
2022/03/08 03:23:43;;;;;;;31.23;16.60;;;3.90;99.90;;;;;;5053884;28;20025;-70
2022/03/08 03:26:09;;;;;;;31.88;18.38;;;4.00;99.90;;;;;;5054146;28;20114;-70
2022/03/08 03:28:34;;;;;;;28.23;16.92;;;4.00;99.90;;;;;;5053759;28;20025;-70
2022/03/08 03:31:00;;;;;;;29.45;17.20;;;4.00;99.90;;;;;;5053758;28;20086;-70
2022/03/08 03:33:26;;;;;;;29.88;17.60;;;4.00;99.90;;;;;;5053715;28;20025;-72
2022/03/08 03:35:51;;;;;;;29.58;17.60;;;4.00;99.90;;;;;;5053574;28;20029;-70
2022/03/08 03:38:17;;;;;;;30.83;18.25;;;4.00;99.90;;;;;;5053631;28;20025;-70
2022/03/08 03:40:43;;;;;;;30.63;17.88;;;4.00;99.90;;;;;;5053585;28;20021;-70
2022/03/08 03:43:08;;;;;;;29.58;17.58;;;4.00;99.90;;;;;;5054138;28;20063;-70
2022/03/08 03:45:34;;;;;;;28.02;15.73;;;4.00;99.90;;;;;;5053761;28;20032;-70
2022/03/08 03:48:00;;;;;;;32.08;18.35;;;4.00;99.90;;;;;;5053510;28;20017;-70
2022/03/08 03:50:25;;;;;;;31.88;18.20;;;4.10;99.90;;;;;;5053462;28;20056;-70
2022/03/08 03:52:52;;;;;;;32.13;18.20;;;4.00;99.90;;;;;;5053408;28;20028;-70
2022/03/08 03:55:17;;;;;;;30.73;17.52;;;4.10;99.90;;;;;;5052995;28;20443;-70
2022/03/08 03:57:43;;;;;;;33.63;18.42;;;4.10;99.90;;;;;;5053666;28;20021;-70
2022/03/08 04:00:10;;;;;;;30.02;17.23;;;4.10;99.90;;;;;;5053314;28;20052;-70
2022/03/08 04:02:36;;;;;;;30.23;17.48;;;4.10;99.90;;;;;;5053270;28;20025;-70
2022/03/08 04:05:02;;;;;;;30.20;17.98;;;4.10;99.90;;;;;;5053076;28;20056;-70
2022/03/08 04:07:27;;;;;;;31.98;18.33;;;4.10;99.90;;;;;;5053208;28;20021;-70
2022/03/08 04:09:53;;;;;;;31.27;17.95;;;4.20;99.90;;;;;;5053177;28;20028;-70
2022/03/08 04:12:18;;;;;;;31.98;18.23;;;4.20;99.90;;;;;;5053193;28;20100;-72
2022/03/08 04:14:44;;;;;;;32.75;18.35;;;4.20;99.90;;;;;;5053134;28;20111;-69
2022/03/08 04:17:10;;;;;;;30.92;18.00;;;4.10;99.90;;;;;;5053012;28;20562;-70
2022/03/08 04:19:35;;;;;;;32.03;17.00;;;4.20;99.90;;;;;;5053091;28;20021;-73
2022/03/08 04:22:01;;;;;;;30.58;17.88;;;4.10;99.90;;;;;;5053064;28;20470;-72
2022/03/08 04:24:27;;;;;;;31.20;17.55;;;4.20;99.90;;;;;;5053058;28;20060;-72
2022/03/08 04:26:53;;;;;;;30.90;18.80;;;4.10;99.90;;;;;;5053019;28;20022;-69
2022/03/08 04:29:19;;;;;;;31.55;18.13;;;4.10;99.90;;;;;;5053565;28;20028;-70
2022/03/08 04:31:45;;;;;;;36.67;20.15;;;4.10;99.90;;;;;;5053004;28;20096;-70
2022/03/08 04:34:10;;;;;;;31.52;18.23;;;4.10;99.90;;;;;;5052930;28;20081;-69
2022/03/08 04:36:36;;;;;;;32.70;18.38;;;4.10;99.90;;;;;;5053420;28;20037;-69
2022/03/08 04:39:03;;;;;;;31.25;17.50;;;4.00;99.90;;;;;;5053169;28;20017;-72
2022/03/08 04:41:28;;;;;;;30.02;16.77;;;4.00;99.90;;;;;;5034967;28;20028;-72
2022/03/08 04:43:54;;;;;;;29.00;17.67;;;4.00;99.90;;;;;;5053165;28;20466;-72
2022/03/08 04:46:20;;;;;;;30.08;17.55;;;4.00;99.90;;;;;;5053424;28;20029;-70
2022/03/08 04:48:45;;;;;;;32.30;18.50;;;4.00;99.90;;;;;;5034886;28;20481;-70
2022/03/08 04:51:11;;;;;;;33.08;18.33;;;4.00;99.90;;;;;;5053084;28;20025;-70
2022/03/08 04:53:38;;;;;;;34.65;18.35;;;4.00;99.90;;;;;;5052793;28;20116;-70
2022/03/08 04:56:03;;;;;;;33.28;18.52;;;4.00;99.90;;;;;;5052625;28;20029;-70
2022/03/08 04:58:29;;;;;;;33.42;18.50;;;4.00;99.90;;;;;;5052999;28;20021;-70
2022/03/08 05:00:56;;;;;;;34.38;18.10;;;4.00;99.90;;;;;;5053023;28;20021;-73
2022/03/08 05:03:21;;;;;;;32.03;19.27;;;4.00;99.90;;;;;;5034656;28;20025;-72
2022/03/08 05:05:47;;;;;;;31.10;18.85;;;4.10;99.90;;;;;;5052489;28;20110;-72
2022/03/08 05:08:14;;;;;;;34.13;19.13;;;4.10;99.90;;;;;;5055751;28;20115;-73
2022/03/08 05:10:40;;;;;;;32.50;18.02;;;4.10;99.90;;;;;;5056409;28;20090;-73
2022/03/08 05:13:06;;;;;;;32.58;18.77;;;4.10;99.90;;;;;;5056434;28;20592;-70
2022/03/08 05:15:32;;;;;;;35.33;19.40;;;4.10;99.90;;;;;;5056272;28;20037;-70
2022/03/08 05:17:57;;;;;;;32.10;18.30;;;4.10;99.90;;;;;;5056876;28;20017;-70
2022/03/08 05:20:23;;;;;;;31.33;16.95;;;4.10;99.90;;;;;;5056266;28;20025;-70
2022/03/08 05:22:49;;;;;;;31.80;17.88;;;4.10;99.90;;;;;;5056217;28;20436;-70
2022/03/08 05:25:15;;;;;;;33.53;18.13;;;4.10;99.90;;;;;;5056152;28;20040;-71
2022/03/08 05:27:40;;;;;;;29.15;18.17;;;4.10;99.90;;;;;;5056379;28;20029;-71
2022/03/08 05:30:07;;;;;;;30.92;18.05;;;4.00;99.90;;;;;;5056329;28;20024;-70
2022/03/08 05:32:32;;;;;;;32.70;18.67;;;4.00;99.90;;;;;;5055976;28;20040;-70
2022/03/08 05:34:58;;;;;;;32.30;18.00;;;4.00;99.90;;;;;;5056535;28;20052;-71
2022/03/08 05:37:24;;;;;;;34.13;18.58;;;3.90;99.90;;;;;;5056156;28;20028;-71
2022/03/08 05:39:49;;;;;;;30.60;18.23;;;4.00;99.90;;;;;;5056441;28;20039;-70
2022/03/08 05:42:15;;;;;;;31.77;18.52;;;3.90;99.90;;;;;;5056428;28;20037;-71
2022/03/08 05:44:41;;;;;;;30.08;16.77;;;3.80;99.90;;;;;;5055812;28;20075;-70
2022/03/08 05:47:07;;;;;;;32.90;17.65;;;3.80;99.90;;;;;;5055728;28;20064;-71
2022/03/08 05:49:33;;;;;;;33.42;18.27;;;3.80;99.90;;;;;;5037825;28;20436;-70
2022/03/08 05:51:58;;;;;;;33.75;19.77;;;3.80;99.90;;;;;;5055668;28;20024;-70
2022/03/08 05:54:24;;;;;;;32.08;17.98;;;3.90;99.90;;;;;;5055534;28;20543;-71
2022/03/08 05:56:49;;;;;;;30.48;18.02;;;3.80;99.90;;;;;;5055492;28;20029;-70
2022/03/08 05:59:16;;;;;;;31.48;18.20;;;3.90;99.90;;;;;;5055515;28;20070;-71
2022/03/08 06:01:42;;;;;;;33.10;18.70;;;3.80;99.90;;;;;;5055750;28;20029;-70
2022/03/08 06:04:07;;;;;;;35.22;18.52;;;3.80;99.90;;;;;;5055264;28;20024;-70
2022/03/08 06:06:33;;;;;;;33.30;19.77;;;3.80;99.90;;;;;;5055395;28;20064;-71
2022/03/08 06:09:02;;;;;;;33.25;17.55;;;3.80;99.90;;;;;;5055228;28;20452;-71
2022/03/08 06:11:27;;;;;;;34.72;19.65;;;3.80;99.90;;;;;;5055608;28;20021;-71
2022/03/08 06:13:53;;;;;;;34.35;19.85;;;3.80;99.90;;;;;;5055541;28;20090;-71
2022/03/08 06:16:18;;;;;;;32.03;18.67;;;3.80;99.90;;;;;;5055415;28;20021;-70
2022/03/08 06:18:44;;;;;;;33.00;18.20;;;3.80;99.90;;;;;;5054936;28;20041;-70
2022/03/08 06:21:10;;;;;;;32.00;18.85;;;3.70;99.90;;;;;;5055133;28;20083;-70
2022/03/08 06:23:36;;;;;;;32.97;17.52;;;3.80;99.90;;;;;;5055051;28;20021;-70
2022/03/08 06:26:02;;;;;;;33.38;18.67;;;3.70;99.90;;;;;;5055266;28;20129;-71
2022/03/08 06:28:27;;;;;;;33.30;17.58;;;3.70;99.90;;;;;;5055287;28;20033;-70
2022/03/08 06:30:53;;;;;;;36.47;18.50;;;3.80;99.90;;;;;;5054908;28;20030;-70
2022/03/08 06:33:19;;;;;;;34.13;18.20;;;3.80;99.90;;;;;;5055150;28;20067;-71
2022/03/08 06:35:44;;;;;;;34.10;19.10;;;3.80;99.90;;;;;;5054774;28;20113;-70
2022/03/08 06:38:10;;;;;;;32.50;18.38;;;3.80;99.90;;;;;;5055104;28;20420;-70
2022/03/08 06:40:35;;;;;;;32.22;17.98;;;3.90;99.90;;;;;;5055024;28;20528;-70
2022/03/08 06:43:01;;;;;;;33.85;18.25;;;3.90;99.90;;;;;;5054967;28;20025;-70
2022/03/08 06:45:27;;;;;;;33.28;18.60;;;3.90;99.90;;;;;;5054603;28;20100;-71
2022/03/08 06:47:52;;;;;;;31.38;17.60;;;4.00;99.90;;;;;;5036775;28;20392;-70
2022/03/08 06:50:18;;;;;;;30.17;17.42;;;4.00;99.90;;;;;;5054552;28;20029;-71
2022/03/08 06:52:43;;;;;;;33.15;17.38;;;4.00;99.90;;;;;;5054495;28;20032;-70
2022/03/08 06:55:10;;;;;;;29.85;17.30;;;4.10;99.90;;;;;;5054713;28;20025;-70
2022/03/08 06:57:37;;;;;;;30.90;18.02;;;4.10;99.90;;;;;;5054360;28;20029;-70
2022/03/08 07:00:05;;;;;;;33.70;19.75;;;4.20;99.90;;;;;;5054396;28;20078;-71
2022/03/08 07:02:30;;;;;;;33.72;18.85;;;4.20;99.90;;;;;;5054176;28;20059;-70
2022/03/08 07:04:57;;;;;;;31.15;17.08;;;4.30;99.90;;;;;;5054113;28;20069;-70
2022/03/08 07:07:23;;;;;;;31.98;18.27;;;4.40;99.90;;;;;;5054720;28;20508;-71
2022/03/08 07:09:48;;;;;;;33.55;17.58;;;4.40;99.90;;;;;;5036326;28;20049;-71
2022/03/08 07:12:14;;;;;;;33.80;18.80;;;4.50;99.90;;;;;;5054107;28;20052;-71
2022/03/08 07:14:40;;;;;;;32.80;19.40;;;4.50;99.90;;;;;;5054096;28;20031;-70
2022/03/08 07:17:05;;;;;;;31.15;17.83;;;4.60;99.90;;;;;;5054207;28;20052;-70
2022/03/08 07:19:31;;;;;;;29.10;17.35;;;4.70;99.90;;;;;;5054004;28;20071;-71
2022/03/08 07:21:57;;;;;;;30.05;17.48;;;4.80;99.90;;;;;;5053966;28;20028;-71
2022/03/08 07:24:22;;;;;;;31.00;17.10;;;4.90;99.90;;;;;;5053909;28;20482;-71
2022/03/08 07:26:48;;;;;;;28.63;16.55;;;5.00;99.90;;;;;;5053878;28;20538;-71
2022/03/08 07:29:14;;;;;;;31.70;17.73;;;5.10;99.90;;;;;;5053079;28;20528;-71
2022/03/08 07:31:39;;;;;;;29.08;16.88;;;5.20;99.90;;;;;;5054308;28;20110;-71
2022/03/08 07:34:05;;;;;;;30.50;16.95;;;5.40;99.90;;;;;;5035942;28;20029;-71
2022/03/08 07:36:31;;;;;;;30.50;16.75;;;5.50;99.90;;;;;;5053664;28;20029;-71
2022/03/08 07:38:56;;;;;;;30.38;18.25;;;5.70;99.90;;;;;;5053934;28;20017;-71
2022/03/08 07:41:22;;;;;;;29.90;16.70;;;5.80;99.90;;;;;;5054179;28;20024;-70
2022/03/08 07:43:48;;;;;;;28.65;17.63;;;5.80;99.90;;;;;;5053622;28;20045;-70
2022/03/08 07:46:14;;;;;;;27.23;16.60;;;5.90;99.90;;;;;;5053699;28;20528;-71
2022/03/08 07:48:40;;;;;;;30.48;17.55;;;6.00;99.90;;;;;;5053735;28;20024;-71
2022/03/08 07:51:05;;;;;;;29.98;17.50;;;6.10;99.90;;;;;;5053518;28;20025;-71
2022/03/08 07:53:31;;;;;;;29.85;16.80;;;6.10;99.90;;;;;;5035523;28;20094;-71
2022/03/08 07:55:57;;;;;;;30.58;16.70;;;6.10;99.90;;;;;;5053405;28;20040;-71
2022/03/08 07:58:23;;;;;;;30.38;17.50;;;6.00;99.90;;;;;;5053355;28;20017;-71
2022/03/08 08:00:49;;;;;;;28.92;16.73;;;6.00;99.90;;;;;;5053388;28;20025;-71
2022/03/08 08:03:14;;;;;;;32.13;17.08;;;6.00;99.90;;;;;;5053061;28;20033;-71
2022/03/08 08:05:40;;;;;;;29.52;16.58;;;6.00;99.90;;;;;;5052062;28;20132;-71
2022/03/08 08:08:06;;;;;;;27.80;16.67;;;6.00;99.90;;;;;;5053387;28;20029;-71
2022/03/08 08:10:33;;;;;;;26.33;15.18;;;6.00;99.90;;;;;;5053362;28;20025;-73
2022/03/08 08:12:59;;;;;;;29.80;16.48;;;6.00;99.90;;;;;;5033769;28;20398;-70
2022/03/08 08:15:25;;;;;;;28.30;16.75;;;6.00;99.90;;;;;;5039859;28;20033;-71
2022/03/08 08:17:51;;;;;;;28.58;16.42;;;6.00;99.90;;;;;;5054103;28;20033;-72
2022/03/08 08:20:17;;;;;;;29.52;16.98;;;6.10;99.90;;;;;;5053394;28;20071;-72
2022/03/08 08:22:43;;;;;;;31.63;16.85;;;6.20;99.90;;;;;;5053245;28;20496;-72
2022/03/08 08:25:10;;;;;;;29.50;16.50;;;6.30;99.90;;;;;;5052691;28;20025;-70
2022/03/08 08:27:37;;;;;;;27.42;16.30;;;6.40;99.90;;;;;;5035486;28;20396;-72
2022/03/08 08:30:07;;;;;;;24.33;15.23;;;6.50;99.90;;;;;;5052822;28;20037;-73
2022/03/08 08:32:32;;;;;;;26.25;15.68;;;6.70;99.90;;;;;;5053761;28;20017;-71
2022/03/08 08:34:59;;;;;;;27.90;16.35;;;6.90;99.90;;;;;;5053511;28;20040;-71
2022/03/08 08:37:24;;;;;;;25.85;16.40;;;7.00;99.90;;;;;;5036002;28;20545;-71
2022/03/08 08:39:50;;;;;;;26.67;16.08;;;7.30;99.90;;;;;;5052924;28;20067;-73
2022/03/08 08:42:16;;;;;;;28.17;16.10;;;7.40;99.90;;;;;;5055594;28;20519;-71
2022/03/08 08:44:41;;;;;;;23.95;15.75;;;7.70;99.90;;;;;;5056886;28;20401;-71
2022/03/08 08:47:07;;;;;;;23.58;14.75;;;8.10;99.90;;;;;;5056049;28;20044;-71
2022/03/08 08:49:32;;;;;;;27.33;15.18;;;8.40;99.90;;;;;;5057043;28;20029;-69
2022/03/08 08:51:58;;;;;;;25.92;15.55;;;;;;;;;;5056953;28;20031;-69
2022/03/08 08:54:24;;;;;;;25.55;14.98;;;;;;;;;;5056459;28;20039;-69
2022/03/08 08:56:50;;;;;;;25.23;14.80;;;;;;;;;;5056106;28;20455;-69
2022/03/08 08:59:16;;;;;;;24.25;14.35;;;;;;;;;;5056365;28;20400;-69
2022/03/08 09:01:42;;;;;;;24.58;14.43;;;;;;;;;;5056487;28;20028;-71
2022/03/08 09:04:08;;;;;;;23.95;14.30;;;;;;;;;;5038070;28;20021;-70
2022/03/08 09:06:35;;;;;;;26.77;14.85;;;;;;;;;;5056083;28;20037;-71
2022/03/08 09:09:01;;;;;;;25.80;15.18;;;;;;;;;;5056457;28;20044;-70
2022/03/08 09:11:28;;;;;;;21.42;14.27;;;;;;;;;;5055950;28;20036;-72
2022/03/08 09:13:56;;;;;;;26.38;14.93;;;;;;;;;;5055861;28;20052;-71
2022/03/08 09:16:23;;;;;;;27.85;14.95;;;;;;;;;;5056247;28;20033;-70
2022/03/08 09:18:49;;;;;;;24.88;14.57;;;;;;;;;;5055827;28;20029;-71
2022/03/08 09:21:15;;;;;;;23.77;14.82;;;;;;;;;;5038292;28;20024;-69
2022/03/08 09:23:41;;;;;;;22.98;14.23;;;;;;;;;;5056344;28;20017;-68
2022/03/08 09:26:08;;;;;;;21.13;13.35;;;;;;;;;;5056251;28;20037;-71
2022/03/08 09:28:34;;;;;;;25.20;12.88;;;;;;;;;;5055821;28;20037;-69
2022/03/08 09:31:00;;;;;;;22.55;13.93;;;;;;;;;;5056109;28;20470;-71
2022/03/08 09:33:27;;;;;;;25.48;15.10;;;;;;;;;;5055934;28;20100;-70
2022/03/08 09:35:53;;;;;;;24.23;14.02;;;;;;;;;;5055807;28;20029;-69
2022/03/08 09:38:19;;;;;;;22.40;14.30;;;;;;;;;;5054861;28;20021;-68
2022/03/08 09:40:47;;;;;;;21.42;13.95;;;;;;;;;;5055776;28;20146;-72
2022/03/08 09:43:14;;;;;;;21.00;13.32;;;;;;;;;;5056320;28;20017;-71
2022/03/08 09:45:40;;;;;;;20.25;13.65;;;;;;;;;;5055402;28;20033;-70
2022/03/08 09:48:06;;;;;;;24.67;14.35;;;;;;;;;;5055723;28;20147;-70
2022/03/08 09:50:32;;;;;;;19.92;13.02;;;;;;;;;;5055100;28;20051;-70
2022/03/08 09:52:59;;;;;;;19.90;12.63;;;;;;;;;;5054637;28;20108;-70
2022/03/08 09:55:26;;;;;;;19.13;13.35;;;;;;;;;;5055542;28;20432;-70
2022/03/08 09:57:55;;;;;;;20.73;13.93;;;;;;;;;;5055148;28;20013;-72
2022/03/08 10:00:23;;;;;;;17.42;12.07;;;;;;;;;;5037647;28;20020;-71
2022/03/08 10:02:50;;;;;;;22.67;13.00;;;;;;;;;;5055141;28;20482;-71
2022/03/08 10:05:17;;;;;;;20.40;13.50;;;;;;;;;;5055218;28;20114;-69
2022/03/08 10:08:02;;;;;;;19.42;12.57;;;;;;;;;;5055700;28;20052;-71
2022/03/08 10:10:32;;;;;;;18.02;12.35;;;;;;;;;;5054757;28;20508;-72
2022/03/08 10:12:58;;;;;;;21.77;13.48;;;8.60;99.90;;;;;;5055687;28;20017;-70
2022/03/08 10:15:24;;;;;;;20.05;12.98;;;12.40;99.90;;;;;;5055080;28;20178;-68
2022/03/08 10:17:50;;;;;;;21.75;12.57;;;12.00;99.90;;;;;;5055193;28;20025;-71
2022/03/08 10:20:29;;;;;;;17.95;11.82;;;11.80;99.90;;;;;;5054477;28;20067;-71
2022/03/08 10:22:54;;;;;;;19.77;13.07;;;11.60;99.90;;;;;;5055405;28;20017;-71
2022/03/08 10:25:25;;;;;;;18.83;12.57;;;11.50;99.90;;;;;;5054673;28;20072;-70
2022/03/08 10:27:54;;;;;;;17.50;11.88;;;11.60;99.90;;;;;;5054680;28;20067;-72
2022/03/08 10:30:22;;;;;;;19.90;12.38;;;11.70;99.90;;;;;;5054969;28;20032;-70
2022/03/08 10:32:48;;;;;;;19.67;11.38;;;11.90;99.90;;;;;;5054664;28;20451;-71
2022/03/08 10:35:24;;;;;;;17.17;12.07;;;;;;;;;;5054966;28;20457;-71
2022/03/08 10:37:49;;;;;;;20.10;12.60;;;12.00;99.90;;;;;;5054142;28;20044;-71
2022/03/08 10:40:22;;;;;;;20.33;12.65;;;;;;;;;;5054817;28;20017;-70
2022/03/08 10:42:58;;;;;;;20.98;12.38;;;11.50;99.90;;;;;;5054507;28;20508;-68
2022/03/08 10:45:26;;;;;;;18.90;12.50;;;11.40;99.90;;;;;;5053973;28;20021;-68
2022/03/08 10:47:53;;;;;;;19.30;12.10;;;11.40;99.90;;;;;;5054647;28;20068;-73
2022/03/08 10:50:21;;;;;;;20.60;13.23;;;11.40;99.90;;;;;;5054035;28;20385;-71
2022/03/08 10:52:51;;;;;;;20.15;11.82;;;11.40;99.90;;;;;;5036660;28;20532;-71
2022/03/08 10:55:20;;;;;;;20.15;12.65;;;11.50;99.90;;;;;;5054134;28;20148;-73
2022/03/08 10:57:54;;;;;;;21.07;12.67;;;11.80;99.90;;;;;;5054699;28;20392;-72
2022/03/08 11:00:38;;;;;;;16.85;12.05;;;12.20;99.90;;;;;;5053943;28;20070;-72
2022/03/08 11:03:05;;;;;;;19.75;11.98;;;12.70;99.90;;;;;;5054670;28;20513;-73
2022/03/08 11:05:38;;;;;;;20.70;13.38;;;13.20;99.90;;;;;;5053641;28;20090;-74
2022/03/08 11:08:05;;;;;;;20.48;13.05;;;13.60;99.90;;;;;;5054845;28;20107;-71
2022/03/08 11:10:32;;;;;;;21.55;14.57;;;14.00;99.90;;;;;;5053217;28;20024;-70
2022/03/08 11:12:58;;;;;;;23.20;14.48;;;14.10;99.90;;;;;;5052943;28;20021;-70
2022/03/08 11:15:25;;;;;;;24.15;15.85;;;14.40;99.90;;;;;;5053999;28;20021;-70
2022/03/08 11:17:52;;;;;;;22.70;14.65;;;;;;;;;;5053426;28;20490;-71
2022/03/08 11:20:20;;;;;;;22.33;14.30;;;14.60;99.90;;;;;;5051864;28;20028;-71
2022/03/08 11:22:48;;;;;;;19.08;12.40;;;15.20;99.90;;;;;;5053491;28;20032;-73
2022/03/08 11:25:18;;;;;;;19.63;11.88;;;;;;;;;;5053234;28;20028;-72
2022/03/08 11:27:48;;;;;;;17.60;11.48;;;;;;;;;;5054033;28;20021;-71
2022/03/08 11:30:25;;;;;;;19.15;12.63;;;;;;;;;;5052861;28;20056;-69
2022/03/08 11:33:00;;;;;;;17.55;12.07;;;;;;;;;;5054032;28;20393;-69
2022/03/08 11:35:35;;;;;;;14.98;11.55;;;;;;;;;;5053620;28;20428;-69
2022/03/08 11:38:03;;;;;;;16.75;12.20;;;15.90;99.90;;;;;;5053682;28;20025;-68
2022/03/08 11:40:33;;;;;;;17.65;11.75;;;17.90;99.90;;;;;;5053667;28;20112;-68
2022/03/08 11:43:04;;;;;;;15.48;11.45;;;17.20;99.90;;;;;;5053899;28;20029;-69
2022/03/08 11:45:31;;;;;;;17.88;12.13;;;16.40;99.90;;;;;;5053600;28;20017;-68
2022/03/08 11:47:57;;;;;;;17.95;11.90;;;16.20;99.90;;;;;;5053553;28;20028;-70
2022/03/08 11:50:24;;;;;;;17.75;11.68;;;;;;;;;;5053769;28;20017;-68
2022/03/08 11:52:51;;;;;;;16.98;11.48;;;;;;;;;;5053496;28;20390;-68
2022/03/08 11:55:24;;;;;;;16.95;12.57;;;;;;;;;;5053643;28;20025;-69
2022/03/08 11:57:54;;;;;;;18.88;12.15;;;;;;;;;;5053430;28;20025;-69
2022/03/08 12:00:22;;;;;;;17.10;11.82;;;;;;;;;;5053910;28;20028;-69
2022/03/08 12:02:51;;;;;;;18.38;12.30;;;;;;;;;;5053298;28;20028;-69
2022/03/08 12:05:37;;;;;;;16.83;11.82;;;;;;;;;;5053280;28;20108;-69
2022/03/08 12:08:21;;;;;;;19.48;12.70;;;;;;;;;;5043340;28;20048;-68
2022/03/08 12:10:47;;;;;;;19.17;12.93;;;;;;;;;;5053165;28;20025;-69
2022/03/08 12:13:14;;;;;;;19.55;12.55;;;16.00;99.90;;;;;;5053481;28;20028;-69
2022/03/08 12:16:05;;;;;;;20.30;13.38;;;13.80;99.90;;;;;;5052662;28;20436;-69
2022/03/08 12:18:38;;;;;;;;;;;13.70;99.90;;;;;;5053866;28;20021;-68
2022/03/08 12:21:31;;;;;;;18.02;12.27;;;13.50;99.90;;;;;;5053461;28;19987;-67
2022/03/08 12:23:58;;;;;;;18.23;11.27;;;13.00;99.90;;;;;;5050668;28;20037;-69
2022/03/08 12:26:28;;;;;;;18.50;11.48;;;;;;;;;;5053654;28;20376;-68
2022/03/08 12:29:17;;;;;;;21.25;12.30;;;;;;;;;;5053083;28;20025;-69
2022/03/08 12:31:58;;;;;;;19.60;11.27;;;;;;;;;;5045022;28;20071;-69
2022/03/08 12:34:38;;;;;;;17.67;10.73;;;;;;;;;;5053560;28;20107;-69
2022/03/08 12:37:07;;;;;;;17.55;11.05;;;12.80;99.90;;;;;;5053535;28;20017;-68
2022/03/08 12:39:54;;;;;;;22.45;11.93;;;13.10;99.90;;;;;;5052975;28;20090;-69
2022/03/08 12:42:28;;;;;;;14.30;10.80;;;13.60;99.90;;;;;;5052906;28;20079;-69
2022/03/08 12:45:10;;;;;;;15.80;10.55;;;14.10;99.90;;;;;;5053503;28;20190;-68
2022/03/08 12:47:38;;;;;;;18.05;11.40;;;14.30;99.90;;;;;;5053154;28;20017;-69
2022/03/08 12:50:14;;;;;;;16.60;11.38;;;14.40;99.90;;;;;;5053386;28;20040;-69